Time;durP1;ratioP1;P1;durP2;ratioP2;P2;SDS_P1;SDS_P2;PMS_P1;PMS_P2;Temp;Humidity;BMP_temperature;BMP_pressure;BME280_temperature;BME280_humidity;BME280_pressure;Samples;Min_cycle;Max_cycle;Signal;HPM_P1;HPM_P2
2021/01/04 00:00:05;;;;;;;3.40;3.10;;;;;;;;;;5100059;28;20031;-87
2021/01/04 00:02:50;;;;;;;3.95;3.05;;;;;;;;;;5095861;28;20045;-86
2021/01/04 00:05:35;;;;;;;3.50;3.20;;;;;;;;;;5136182;27;20166;-87
2021/01/04 00:08:20;;;;;;;3.80;3.38;;;;;;;;;;5121373;27;20443;-87
2021/01/04 00:10:59;;;;;;;3.67;3.38;;;;;;;;;;5118984;28;20034;-88
2021/01/04 00:13:33;;;;;;;3.60;3.30;;;;;;;;;;5111519;28;20077;-88
2021/01/04 00:16:04;;;;;;;4.03;3.63;;;;;;;;;;5106255;28;20035;-86
2021/01/04 00:18:44;;;;;;;3.55;3.25;;;;;;;;;;5080425;28;20033;-86
2021/01/04 00:21:14;;;;;;;3.50;3.05;;;;;;;;;;5083655;28;20021;-90
2021/01/04 00:23:57;;;;;;;3.33;3.03;;;;;;;;;;5064746;28;20040;-90
2021/01/04 00:26:32;;;;;;;3.47;3.17;;;;;;;;;;5081128;28;20028;-89
2021/01/04 00:28:58;;;;;;;3.47;3.00;;;;;;;;;;5062859;28;20048;-87
2021/01/04 00:31:30;;;;;;;3.70;3.40;;;;;;;;;;5063052;28;20039;-85
2021/01/04 00:34:03;;;;;;;3.60;3.28;;;;;;;;;;5080092;28;20028;-89
2021/01/04 00:36:31;;;;;;;4.07;3.63;;;;;;;;;;5080560;28;20033;-88
2021/01/04 00:39:10;;;;;;;4.47;3.60;;;;;;;;;;5062563;28;20496;-88
2021/01/04 00:41:36;;;;;;;3.70;3.40;;;;;;;;;;5061732;28;20450;-86
2021/01/04 00:44:06;;;;;;;3.88;3.58;;;;;;;;;;5079542;28;20056;-87
2021/01/04 00:46:36;;;;;;;4.22;3.83;;;;;;;;;;5081553;28;20311;-86
2021/01/04 00:49:40;;;;;;;3.80;3.50;;;;;;;;;;5098851;28;20074;-88
2021/01/04 00:52:27;;;;;;;3.78;3.47;;;;;;;;;;4980915;28;20054;-88
2021/01/04 00:55:12;;;;;;;3.58;3.28;;;;;;;;;;4980732;28;20042;-88
2021/01/04 00:57:56;;;;;;;3.80;3.50;;;;;;;;;;5055492;28;20056;-89
2021/01/04 01:00:32;;;;;;;4.30;3.90;;;;;;;;;;5081607;28;20073;-89
2021/01/04 01:02:58;;;;;;;4.15;3.75;;;;;;;;;;5081907;28;20032;-88
2021/01/04 01:05:37;;;;;;;4.55;4.15;;;;;;;;;;5082146;28;20035;-88
2021/01/04 01:08:06;;;;;;;3.50;3.23;;;;;;;;;;5099736;28;20031;-88
2021/01/04 01:10:36;;;;;;;4.57;4.18;;;;;;;;;;5082069;28;20257;-88
2021/01/04 01:13:26;;;;;;;3.90;3.60;;;;;;;;;;5081556;28;20082;-87
2021/01/04 01:16:07;;;;;;;4.47;4.07;;;;;;;;;;5082018;28;20345;-87
2021/01/04 01:18:33;;;;;;;3.88;3.58;;;;;;;;;;5081481;28;20024;-85
2021/01/04 01:21:02;;;;;;;4.55;4.15;;;;;;;;;;5081619;28;20039;-86
2021/01/04 01:23:29;;;;;;;4.35;3.95;;;;;;;;;;5081865;28;20084;-87
2021/01/04 01:26:13;;;;;;;4.25;3.90;;;;;;;;;;5098810;28;20036;-88
2021/01/04 01:28:39;;;;;;;4.30;3.90;;;;;;;;;;5099313;28;20343;-88
2021/01/04 01:31:14;;;;;;;5.13;4.63;;;;;;;;;;5099220;28;20036;-87
2021/01/04 01:33:58;;;;;;;4.35;3.95;;;;;;;;;;5081910;28;20466;-87
2021/01/04 01:36:35;;;;;;;4.53;4.10;;;;;;;;;;5081535;28;20423;-90
2021/01/04 01:39:07;;;;;;;4.25;3.90;;;;;;;;;;5081423;28;20093;-85
2021/01/04 01:41:59;;;;;;;4.80;4.40;;;;;;;;;;5079819;28;20032;-88
2021/01/04 01:44:40;;;;;;;4.68;4.28;;;;;;;;;;5081753;28;20039;-87
2021/01/04 01:47:21;;;;;;;4.45;4.05;;;;;;;;;;5079979;28;20166;-86
2021/01/04 01:49:48;;;;;;;5.18;4.68;;;;;;;;;;5099804;28;20036;-88
2021/01/04 01:52:23;;;;;;;6.13;4.25;;;;;;;;;;5082678;28;20131;-87
2021/01/04 01:55:01;;;;;;;6.50;4.28;;;;;;;;;;5097133;28;20131;-88
2021/01/04 01:57:46;;;;;;;4.70;4.30;;;;;;;;;;5098705;28;20043;-86
2021/01/04 02:00:18;;;;;;;5.00;4.50;;;;;;;;;;5080876;28;20028;-87
2021/01/04 02:02:55;;;;;;;4.90;4.40;;;;;;;;;;5081236;28;20055;-88
2021/01/04 02:05:27;;;;;;;11.63;4.95;;;;;;;;;;5081590;28;20399;-89
2021/01/04 02:07:53;;;;;;;5.00;4.50;;;;;;;;;;5080949;28;20040;-86
2021/01/04 02:10:32;;;;;;;6.57;4.25;;;;;;;;;;5080967;28;20029;-86
2021/01/04 02:13:03;;;;;;;4.07;3.67;;;;;;;;;;5080129;28;20039;-87
2021/01/04 02:15:33;;;;;;;6.68;3.80;;;;;;;;;;5080395;28;20407;-86
2021/01/04 02:18:00;;;;;;;5.40;4.90;;;;;;;;;;5098291;28;20020;-88
2021/01/04 02:20:38;;;;;;;4.78;4.38;;;;;;;;;;5080413;28;20031;-85
2021/01/04 02:23:23;;;;;;;4.73;4.20;;;;;;;;;;5080908;28;20035;-84
2021/01/04 02:25:49;;;;;;;4.90;4.40;;;;;;;;;;5080786;28;20032;-86
2021/01/04 02:28:19;;;;;;;4.50;4.10;;;;;;;;;;5080605;28;20031;-86
2021/01/04 02:30:45;;;;;;;5.57;5.07;;;;;;;;;;5080437;28;20031;-87
2021/01/04 02:33:13;;;;;;;6.68;4.47;;;;;;;;;;5080357;28;20073;-86
2021/01/04 02:35:41;;;;;;;5.22;4.72;;;;;;;;;;5097823;28;20020;-86
2021/01/04 02:38:07;;;;;;;4.90;4.55;;;;;;;;;;5080403;28;20032;-89
2021/01/04 02:40:33;;;;;;;5.10;4.60;;;;;;;;;;5098300;28;20020;-87
2021/01/04 02:42:59;;;;;;;5.45;4.95;;;;;;;;;;5082277;28;20043;-88
2021/01/04 02:45:27;;;;;;;5.28;4.78;;;;;;;;;;5100319;28;20023;-86
2021/01/04 02:48:05;;;;;;;5.80;5.30;;;;;;;;;;5118065;28;20028;-88
2021/01/04 02:50:47;;;;;;;4.95;4.55;;;;;;;;;;5100843;28;20030;-85
2021/01/04 02:53:35;;;;;;;4.88;4.47;;;;;;;;;;5100274;28;20105;-87
2021/01/04 02:56:19;;;;;;;4.80;4.40;;;;;;;;;;5100149;28;20043;-87
2021/01/04 02:58:57;;;;;;;5.43;4.93;;;;;;;;;;5118492;28;20028;-86
2021/01/04 03:01:29;;;;;;;5.38;4.88;;;;;;;;;;5100696;28;20039;-86
2021/01/04 03:03:55;;;;;;;5.90;5.35;;;;;;;;;;5118503;28;20032;-87
2021/01/04 03:06:30;;;;;;;5.07;4.63;;;;;;;;;;5118098;28;20039;-85
2021/01/04 03:08:56;;;;;;;5.22;4.82;;;;;;;;;;5099745;28;20024;-86
2021/01/04 03:11:23;;;;;;;5.70;5.20;;;;;;;;;;5119291;28;20035;-87
2021/01/04 03:13:55;;;;;;;5.75;5.25;;;;;;;;;;5100850;28;20028;-85
2021/01/04 03:16:36;;;;;;;5.70;5.20;;;;;;;;;;5118456;28;20040;-87
2021/01/04 03:19:06;;;;;;;5.47;4.97;;;;;;;;;;5100102;28;20034;-85
2021/01/04 03:21:32;;;;;;;;;;;;;;;;;;5100621;28;20027;-87
2021/01/04 03:23:59;;;;;;;5.63;5.13;;;;;;;;;;5100435;28;20214;-87
2021/01/04 03:26:26;;;;;;;4.72;4.32;;;;;;;;;;5104128;28;20434;-85
2021/01/04 03:28:52;;;;;;;6.35;4.93;;;;;;;;;;5103358;28;20027;-86
2021/01/04 03:31:18;;;;;;;5.68;5.18;;;;;;;;;;5121222;28;20027;-86
2021/01/04 03:33:45;;;;;;;6.03;5.43;;;;;;;;;;5103665;28;20139;-86
2021/01/04 03:36:12;;;;;;;6.32;5.30;;;;;;;;;;5103523;28;20039;-86
2021/01/04 03:38:38;;;;;;;5.20;4.70;;;;;;;;;;5103635;28;20122;-85
2021/01/04 03:41:04;;;;;;;5.28;4.88;;;;;;;;;;5103223;28;20088;-87
2021/01/04 03:43:31;;;;;;;5.82;5.28;;;;;;;;;;5103433;28;20023;-86
2021/01/04 03:45:57;;;;;;;6.15;5.55;;;;;;;;;;5103062;28;20480;-87
2021/01/04 03:48:23;;;;;;;5.55;5.07;;;;;;;;;;5103313;28;20042;-87
2021/01/04 03:50:50;;;;;;;5.90;5.40;;;;;;;;;;5103247;28;20343;-85
2021/01/04 03:53:16;;;;;;;5.78;5.28;;;;;;;;;;5102801;28;20028;-87
2021/01/04 03:55:43;;;;;;;5.93;5.43;;;;;;;;;;5102545;28;20035;-85
2021/01/04 03:58:10;;;;;;;5.70;5.20;;;;;;;;;;5103457;28;20031;-87
2021/01/04 04:00:37;;;;;;;6.00;5.50;;;;;;;;;;5102414;28;20027;-87
2021/01/04 04:03:04;;;;;;;5.72;5.22;;;;;;;;;;5103206;28;20418;-84
2021/01/04 04:05:31;;;;;;;5.75;5.25;;;;;;;;;;5120832;28;20122;-87
2021/01/04 04:07:57;;;;;;;6.03;5.53;;;;;;;;;;5102473;28;20453;-86
2021/01/04 04:10:24;;;;;;;5.70;5.20;;;;;;;;;;5102552;28;20031;-86
2021/01/04 04:12:50;;;;;;;5.95;5.45;;;;;;;;;;5102695;28;20351;-86
2021/01/04 04:15:17;;;;;;;6.15;5.65;;;;;;;;;;5103114;28;20051;-86
2021/01/04 04:17:43;;;;;;;5.35;4.95;;;;;;;;;;5102721;28;20047;-87
2021/01/04 04:20:13;;;;;;;5.75;5.25;;;;;;;;;;5120893;28;20047;-85
2021/01/04 04:22:40;;;;;;;5.90;5.40;;;;;;;;;;5121350;28;20054;-85
2021/01/04 04:25:06;;;;;;;5.72;5.25;;;;;;;;;;5102081;28;20126;-86
2021/01/04 04:27:33;;;;;;;5.63;5.18;;;;;;;;;;5103354;28;20031;-86
2021/01/04 04:29:59;;;;;;;6.28;5.70;;;;;;;;;;5102575;28;20024;-85
2021/01/04 04:32:25;;;;;;;5.68;5.28;;;;;;;;;;5102375;28;20035;-85
2021/01/04 04:34:51;;;;;;;5.65;5.15;;;;;;;;;;5102281;28;20023;-85
2021/01/04 04:37:17;;;;;;;5.72;5.13;;;;;;;;;;5102553;28;20036;-86
2021/01/04 04:39:43;;;;;;;5.55;5.07;;;;;;;;;;5102505;28;20045;-86
2021/01/04 04:42:13;;;;;;;5.63;5.18;;;;;;;;;;5102040;28;20046;-85
2021/01/04 04:44:55;;;;;;;6.13;5.53;;;;;;;;;;5102779;28;20049;-85
2021/01/04 04:47:40;;;;;;;5.60;5.07;;;;;;;;;;5120723;28;20028;-85
2021/01/04 04:50:29;;;;;;;5.57;5.10;;;;;;;;;;5102168;28;20081;-85
2021/01/04 04:53:03;;;;;;;6.28;5.78;;;;;;;;;;5102459;28;20035;-84
2021/01/04 04:55:38;;;;;;;5.85;5.35;;;;;;;;;;5120860;28;20025;-88
2021/01/04 04:58:19;;;;;;;5.68;5.18;;;;;;;;;;5100212;28;20032;-86
2021/01/04 05:00:58;;;;;;;6.57;6.07;;;;;;;;;;5067823;28;20131;-83
2021/01/04 05:03:47;;;;;;;6.90;6.20;;;;;;;;;;5082060;28;20023;-84
2021/01/04 05:06:19;;;;;;;6.50;6.00;;;;;;;;;;5069286;28;20036;-85
2021/01/04 05:09:04;;;;;;;6.10;5.60;;;;;;;;;;5099908;28;20020;-83
2021/01/04 05:11:32;;;;;;;6.32;5.72;;;;;;;;;;5099940;28;20028;-86
2021/01/04 05:13:58;;;;;;;5.90;5.30;;;;;;;;;;5081738;28;20065;-85
2021/01/04 05:16:53;;;;;;;6.47;5.88;;;;;;;;;;5082417;28;20040;-86
2021/01/04 05:19:32;;;;;;;6.35;5.78;;;;;;;;;;5077894;28;20086;-87
2021/01/04 05:22:20;;;;;;;6.57;6.07;;;;;;;;;;5081759;28;20035;-84
2021/01/04 05:25:04;;;;;;;6.60;6.00;;;;;;;;;;5081173;28;20031;-86
2021/01/04 05:27:49;;;;;;;6.13;5.63;;;;;;;;;;5099052;28;20024;-86
2021/01/04 05:30:18;;;;;;;6.43;5.93;;;;;;;;;;5099270;28;20028;-86
2021/01/04 05:33:04;;;;;;;6.93;6.18;;;;;;;;;;5081612;28;20038;-86
2021/01/04 05:35:30;;;;;;;6.30;5.75;;;;;;;;;;5041120;28;20397;-87
2021/01/04 05:38:08;;;;;;;7.13;6.53;;;;;;;;;;5099208;28;20324;-86
2021/01/04 05:40:40;;;;;;;6.75;6.15;;;;;;;;;;5079478;28;20059;-86
2021/01/04 05:43:13;;;;;;;6.55;6.03;;;;;;;;;;5081472;28;20031;-85
2021/01/04 05:45:53;;;;;;;6.47;5.97;;;;;;;;;;5098296;28;20118;-85
2021/01/04 05:48:38;;;;;;;6.63;6.05;;;;;;;;;;5075637;28;20052;-85
2021/01/04 05:51:12;;;;;;;6.32;5.82;;;;;;;;;;5081263;28;20032;-86
2021/01/04 05:53:39;;;;;;;6.82;6.15;;;;;;;;;;5076319;28;20047;-86
2021/01/04 05:56:05;;;;;;;6.90;6.40;;;;;;;;;;5074772;28;20170;-87
2021/01/04 05:58:32;;;;;;;7.05;6.35;;;;;;;;;;5074457;28;20036;-86
2021/01/04 06:01:09;;;;;;;8.23;7.43;;;;;;;;;;5098239;28;20036;-87
2021/01/04 06:03:35;;;;;;;7.55;6.85;;;;;;;;;;5078604;28;20028;-89
2021/01/04 06:06:08;;;;;;;7.07;6.47;;;;;;;;;;5070468;28;20459;-84
2021/01/04 06:08:34;;;;;;;7.25;6.55;;;;;;;;;;5065839;28;20038;-87
2021/01/04 06:11:08;;;;;;;7.82;7.13;;;;;;;;;;5081530;28;20118;-87
2021/01/04 06:13:35;;;;;;;7.20;6.55;;;;;;;;;;5077138;28;20035;-87
2021/01/04 06:16:06;;;;;;;7.32;6.72;;;;;;;;;;5080065;28;20036;-87
2021/01/04 06:18:32;;;;;;;6.47;5.88;;;;;;;;;;5071814;28;20329;-87
2021/01/04 06:21:07;;;;;;;7.63;6.88;;;;;;;;;;5078885;28;20036;-87
2021/01/04 06:23:34;;;;;;;7.18;6.50;;;;;;;;;;5079389;28;20039;-87
2021/01/04 06:26:05;;;;;;;7.15;6.55;;;;;;;;;;5063808;28;20151;-85
2021/01/04 06:28:31;;;;;;;7.28;6.25;;;;;;;;;;5070805;28;20168;-88
2021/01/04 06:31:02;;;;;;;6.93;6.32;;;;;;;;;;5067168;28;20111;-87
2021/01/04 06:33:29;;;;;;;7.50;6.82;;;;;;;;;;5069136;28;20024;-89
2021/01/04 06:36:04;;;;;;;7.40;6.68;;;;;;;;;;5072468;28;20041;-88
2021/01/04 06:38:31;;;;;;;6.88;6.28;;;;;;;;;;5065525;28;20317;-86
2021/01/04 06:40:58;;;;;;;7.28;6.63;;;;;;;;;;5077215;28;20027;-86
2021/01/04 06:43:29;;;;;;;7.15;6.50;;;;;;;;;;5071573;28;20032;-84
2021/01/04 06:46:01;;;;;;;7.55;6.85;;;;;;;;;;5077432;28;20043;-87
2021/01/04 06:48:42;;;;;;;7.18;6.50;;;;;;;;;;5073546;28;20058;-86
2021/01/04 06:51:27;;;;;;;7.20;6.45;;;;;;;;;;5097208;28;20028;-89
2021/01/04 06:54:12;;;;;;;6.28;5.68;;;;;;;;;;5076765;28;20020;-86
2021/01/04 06:56:38;;;;;;;7.32;6.68;;;;;;;;;;5064352;28;20054;-89
2021/01/04 06:59:31;;;;;;;8.25;7.38;;;;;;;;;;5072884;28;20042;-87
2021/01/04 07:02:13;;;;;;;6.85;6.20;;;;;;;;;;5075254;28;20458;-88
2021/01/04 07:05:05;;;;;;;7.22;6.53;;;;;;;;;;5082185;28;20325;-87
2021/01/04 07:07:42;;;;;;;6.90;6.30;;;;;;;;;;5086291;28;20024;-86
2021/01/04 07:10:15;;;;;;;6.90;6.30;;;;;;;;;;5080151;28;20028;-87
2021/01/04 07:12:41;;;;;;;7.05;6.35;;;;;;;;;;5080816;28;20024;-86
2021/01/04 07:15:07;;;;;;;7.07;6.47;;;;;;;;;;5096110;28;20044;-85
2021/01/04 07:17:40;;;;;;;7.72;6.88;;;;;;;;;;5081473;28;20036;-85
2021/01/04 07:20:23;;;;;;;7.22;6.53;;;;;;;;;;5078851;28;20027;-85
2021/01/04 07:23:00;;;;;;;7.18;6.57;;;;;;;;;;5082993;28;20028;-87
2021/01/04 07:25:45;;;;;;;7.72;6.93;;;;;;;;;;5081866;28;20127;-88
2021/01/04 07:28:17;;;;;;;7.55;6.68;;;;;;;;;;5081785;28;20134;-85
2021/01/04 07:30:56;;;;;;;6.60;6.00;;;;;;;;;;5081106;28;20024;-87
2021/01/04 07:33:29;;;;;;;7.93;7.22;;;;;;;;;;5079496;28;20036;-88
2021/01/04 07:35:55;;;;;;;6.68;6.07;;;;;;;;;;5080697;28;20024;-84
2021/01/04 07:38:28;;;;;;;7.68;6.97;;;;;;;;;;5081624;28;20028;-88
2021/01/04 07:40:54;;;;;;;7.32;6.63;;;;;;;;;;5094202;28;20028;-87
2021/01/04 07:43:29;;;;;;;6.38;5.85;;;;;;;;;;5098221;28;20109;-85
2021/01/04 07:45:58;;;;;;;7.63;6.85;;;;;;;;;;5077750;28;20028;-86
2021/01/04 07:48:24;;;;;;;6.72;6.13;;;;;;;;;;5100630;28;20420;-85
2021/01/04 07:51:09;;;;;;;7.60;6.80;;;;;;;;;;5082152;28;20035;-86
2021/01/04 07:53:41;;;;;;;6.97;6.38;;;;;;;;;;5080611;28;20037;-84
2021/01/04 07:56:08;;;;;;;7.50;6.80;;;;;;;;;;5063047;28;20039;-88
2021/01/04 07:58:46;;;;;;;8.18;7.47;;;;;;;;;;5079543;28;20072;-86
2021/01/04 08:01:12;;;;;;;7.28;6.57;;;;;;;;;;5074215;28;20340;-83
2021/01/04 08:03:47;;;;;;;7.18;6.57;;;;;;;;;;5081763;28;20058;-86
2021/01/04 08:06:19;;;;;;;7.25;6.57;;;;;;;;;;5073049;28;20370;-86
2021/01/04 08:08:48;;;;;;;7.70;7.00;;;;;;;;;;5098490;28;20024;-86
2021/01/04 08:11:33;;;;;;;6.70;6.20;;;;;;;;;;5098536;28;20393;-86
2021/01/04 08:14:17;;;;;;;7.20;6.60;;;;;;;;;;5081342;28;20032;-85
2021/01/04 08:16:49;;;;;;;7.22;6.53;;;;;;;;;;5068162;28;20028;-86
2021/01/04 08:19:16;;;;;;;6.60;6.00;;;;;;;;;;5081090;28;20123;-86
2021/01/04 08:21:51;;;;;;;7.30;6.60;;;;;;;;;;5082059;28;20028;-85
2021/01/04 08:24:17;;;;;;;6.75;6.15;;;;;;;;;;5097928;28;20078;-87
2021/01/04 08:26:49;;;;;;;7.70;7.00;;;;;;;;;;5095351;28;20028;-85
2021/01/04 08:29:15;;;;;;;7.38;6.60;;;;;;;;;;5074676;28;20367;-87
2021/01/04 08:31:59;;;;;;;7.20;6.60;;;;;;;;;;5098343;28;20461;-87
2021/01/04 08:34:25;;;;;;;6.90;6.30;;;;;;;;;;5077283;28;20036;-84
2021/01/04 08:36:57;;;;;;;6.65;5.93;;;;;;;;;;5077426;28;20025;-87
2021/01/04 08:39:23;;;;;;;7.13;6.53;;;;;;;;;;5080521;28;20052;-86
2021/01/04 08:42:04;;;;;;;6.70;6.10;;;;;;;;;;5098166;28;20031;-86
2021/01/04 08:44:34;;;;;;;7.13;6.43;;;;;;;;;;5096499;28;20054;-85
2021/01/04 08:47:18;;;;;;;7.60;6.90;;;;;;;;;;5079806;28;20050;-88
2021/01/04 08:49:48;;;;;;;6.93;6.32;;;;;;;;;;5077733;28;20031;-86
2021/01/04 08:52:19;;;;;;;7.75;7.05;;;;;;;;;;5095395;28;20025;-85
2021/01/04 08:54:45;;;;;;;6.75;6.15;;;;;;;;;;5094258;28;20038;-85
2021/01/04 08:57:16;;;;;;;6.95;6.25;;;;;;;;;;5094542;28;20371;-84
2021/01/04 08:59:57;;;;;;;7.22;6.63;;;;;;;;;;5079784;28;20024;-87
2021/01/04 09:02:35;;;;;;;7.47;6.70;;;;;;;;;;5089145;28;20028;-86
2021/01/04 09:05:04;;;;;;;7.00;6.32;;;;;;;;;;5099347;28;20028;-86
2021/01/04 09:07:30;;;;;;;7.43;6.70;;;;;;;;;;5077570;28;20028;-88
2021/01/04 09:10:15;;;;;;;8.35;7.32;;;;;;;;;;5081091;28;20047;-88
2021/01/04 09:12:45;;;;;;;6.28;5.68;;;;;;;;;;5080926;28;20028;-88
2021/01/04 09:15:11;;;;;;;;;;;;;;;;;;5081166;28;20038;-87
2021/01/04 09:17:45;;;;;;;6.93;6.22;;;;;;;;;;5081546;28;19916;-90
2021/01/04 09:20:11;;;;;;;7.10;6.43;;;;;;;;;;5097584;28;20028;-87
2021/01/04 09:22:37;;;;;;;7.07;5.53;;;;;;;;;;5077027;28;20050;-87
2021/01/04 09:25:04;;;;;;;6.68;6.07;;;;;;;;;;5096566;28;20326;-84
2021/01/04 09:27:36;;;;;;;6.60;6.00;;;;;;;;;;5095907;28;20024;-87
2021/01/04 09:30:08;;;;;;;6.50;5.90;;;;;;;;;;5081227;28;20383;-87
2021/01/04 09:32:42;;;;;;;7.53;6.80;;;;;;;;;;5078510;28;20130;-88
2021/01/04 09:35:10;;;;;;;6.63;6.03;;;;;;;;;;5098942;28;20016;-88
2021/01/04 09:37:38;;;;;;;6.97;6.37;;;;;;;;;;5074877;28;20122;-87
2021/01/04 09:40:09;;;;;;;6.95;6.10;;;;;;;;;;5098879;28;20272;-88
2021/01/04 09:42:35;;;;;;;7.00;6.30;;;;;;;;;;5078887;28;20024;-87
2021/01/04 09:45:15;;;;;;;7.32;6.50;;;;;;;;;;5078131;28;20028;-85
2021/01/04 09:47:46;;;;;;;7.30;6.60;;;;;;;;;;5097600;28;20055;-86
2021/01/04 09:50:21;;;;;;;7.35;6.57;;;;;;;;;;5106345;28;20131;-87
2021/01/04 09:53:10;;;;;;;7.45;6.75;;;;;;;;;;5084048;28;20027;-87
2021/01/04 09:55:39;;;;;;;7.60;6.63;;;;;;;;;;5073461;28;20040;-87
2021/01/04 09:58:06;;;;;;;7.03;6.25;;;;;;;;;;5078048;28;20032;-90
2021/01/04 10:00:34;;;;;;;9.45;7.13;;;;;;;;;;5080912;28;20032;-84
2021/01/04 10:03:01;;;;;;;9.05;7.78;;;;;;;;;;5097253;28;20032;-87
2021/01/04 10:05:32;;;;;;;7.63;6.82;;;;;;;;;;5095875;28;20028;-88
2021/01/04 10:07:59;;;;;;;8.32;7.15;;;;;;;;;;5079834;28;21371;-86
2021/01/04 10:10:25;;;;;;;8.40;7.60;;;;;;;;;;5096936;28;20028;-87
2021/01/04 10:12:51;;;;;;;8.88;7.97;;;;;;;;;;5078319;28;20058;-89
2021/01/04 10:15:25;;;;;;;8.18;7.38;;;;;;;;;;5078374;28;20416;-84
2021/01/04 10:18:02;;;;;;;8.30;7.60;;;;;;;;;;5097585;28;20032;-86
2021/01/04 10:20:36;;;;;;;9.68;8.10;;;;;;;;;;5088763;28;20023;-87
2021/01/04 10:23:02;;;;;;;8.30;7.47;;;;;;;;;;5094093;28;20024;-87
2021/01/04 10:25:34;;;;;;;7.95;7.15;;;;;;;;;;5073862;28;20028;-88
2021/01/04 10:28:01;;;;;;;8.90;8.00;;;;;;;;;;5096900;28;20123;-88
2021/01/04 10:30:28;;;;;;;8.55;7.75;;;;;;;;;;5080593;28;20028;-85
2021/01/04 10:33:02;;;;;;;8.02;7.22;;;;;;;;;;5080425;28;20035;-86
2021/01/04 10:35:28;;;;;;;9.38;8.23;;;;;;;;;;5080938;28;20028;-86
2021/01/04 10:38:02;;;;;;;8.32;7.30;;;;;;;;;;5078673;28;20040;-86
2021/01/04 10:40:29;;;;;;;8.25;7.47;;;;;;;;;;5097274;28;20077;-87
2021/01/04 10:43:03;;;;;;;9.77;8.77;;;;;;;;;;5097815;28;20035;-87
2021/01/04 10:45:40;;;;;;;9.00;8.07;;;;;;;;;;5081256;28;20060;-86
2021/01/04 10:48:15;;;;;;;8.55;7.75;;;;;;;;;;5077392;28;20028;-86
2021/01/04 10:50:44;;;;;;;8.77;7.88;;;;;;;;;;5074131;28;20020;-86
2021/01/04 10:53:32;;;;;;;9.20;8.30;;;;;;;;;;5081945;28;20035;-86
2021/01/04 10:56:13;;;;;;;8.88;8.00;;;;;;;;;;5081877;28;20036;-87
2021/01/04 10:58:58;;;;;;;9.55;8.40;;;;;;;;;;5087437;28;20024;-86
2021/01/04 11:01:31;;;;;;;9.88;8.10;;;;;;;;;;5112160;28;20034;-84
2021/01/04 11:03:59;;;;;;;8.20;7.40;;;;;;;;;;5096333;28;20012;-85
2021/01/04 11:06:27;;;;;;;9.15;8.25;;;;;;;;;;5096090;28;20043;-84
2021/01/04 11:08:53;;;;;;;9.40;8.40;;;;;;;;;;5096994;28;20012;-87
2021/01/04 11:11:37;;;;;;;11.85;8.70;;;;;;;;;;5115093;28;20012;-85
2021/01/04 11:14:16;;;;;;;8.43;7.63;;;;;;;;;;5112626;28;20058;-84
2021/01/04 11:16:51;;;;;;;9.70;8.70;;;;;;;;;;5107539;28;20054;-87
2021/01/04 11:19:34;;;;;;;9.40;8.43;;;;;;;;;;5081266;28;20032;-87
2021/01/04 11:22:16;;;;;;;8.90;7.97;;;;;;;;;;5107199;28;20036;-83
2021/01/04 11:24:42;;;;;;;9.23;8.23;;;;;;;;;;5111202;28;20095;-86
2021/01/04 11:27:08;;;;;;;9.23;8.10;;;;;;;;;;5087118;28;20029;-86
2021/01/04 11:29:37;;;;;;;9.98;8.27;;;;;;;;;;5084386;28;20020;-86
2021/01/04 11:32:08;;;;;;;9.57;8.57;;;;;;;;;;5095560;28;20032;-86
2021/01/04 11:34:35;;;;;;;8.63;7.82;;;;;;;;;;5075440;28;20287;-84
2021/01/04 11:37:02;;;;;;;10.23;9.00;;;;;;;;;;5076974;28;20173;-88
2021/01/04 11:39:28;;;;;;;9.05;7.35;;;;;;;;;;5076301;28;20026;-85
2021/01/04 11:41:54;;;;;;;8.25;7.40;;;;;;;;;;5096486;28;20131;-86
2021/01/04 11:44:20;;;;;;;10.02;8.20;;;;;;;;;;5081140;28;20070;-85
2021/01/04 11:46:47;;;;;;;8.38;7.57;;;;;;;;;;5100918;28;20031;-86
2021/01/04 11:49:13;;;;;;;8.45;7.75;;;;;;;;;;5090779;28;20032;-87
2021/01/04 11:51:40;;;;;;;8.73;7.85;;;;;;;;;;5093005;28;20020;-89
2021/01/04 11:54:07;;;;;;;9.75;8.07;;;;;;;;;;5080221;28;20045;-87
2021/01/04 11:56:33;;;;;;;10.50;8.27;;;;;;;;;;5081872;28;20040;-87
2021/01/04 11:59:00;;;;;;;10.00;7.40;;;;;;;;;;5098816;28;20125;-87
2021/01/04 12:01:27;;;;;;;9.32;7.93;;;;;;;;;;5082640;28;20032;-87
2021/01/04 12:03:53;;;;;;;8.63;7.78;;;;;;;;;;5099756;28;20115;-88
2021/01/04 12:06:19;;;;;;;8.15;7.35;;;;;;;;;;5081536;28;20024;-87
2021/01/04 12:08:45;;;;;;;8.70;7.65;;;;;;;;;;5099769;28;20032;-88
2021/01/04 12:11:12;;;;;;;7.10;6.40;;;;;;;;;;5081750;28;20027;-88
2021/01/04 12:13:38;;;;;;;10.02;7.30;;;;;;;;;;5081637;28;20028;-87
2021/01/04 12:16:05;;;;;;;9.07;7.03;;;;;;;;;;5099838;28;20028;-87
2021/01/04 12:18:31;;;;;;;8.93;7.70;;;;;;;;;;5081210;28;20035;-86
2021/01/04 12:20:57;;;;;;;8.75;7.85;;;;;;;;;;5082743;28;20028;-87
2021/01/04 12:23:23;;;;;;;7.97;7.25;;;;;;;;;;5077820;28;20038;-87
2021/01/04 12:25:50;;;;;;;9.85;7.00;;;;;;;;;;5100175;28;20076;-90
2021/01/04 12:28:16;;;;;;;7.05;6.35;;;;;;;;;;5099053;28;20110;-86
2021/01/04 12:30:42;;;;;;;8.00;7.20;;;;;;;;;;5081785;28;20414;-85
2021/01/04 12:33:08;;;;;;;7.63;6.93;;;;;;;;;;5099620;28;20074;-87
2021/01/04 12:35:38;;;;;;;9.73;8.82;;;;;;;;;;5082408;28;20135;-87
2021/01/04 12:38:04;;;;;;;;;;;;;;;;;;5081414;28;20035;-86
2021/01/04 12:40:32;;;;;;;9.77;7.63;;;;;;;;;;5099716;28;20380;-83
2021/01/04 12:42:58;;;;;;;6.90;6.30;;;;;;;;;;5081179;28;20039;-85
2021/01/04 12:45:25;;;;;;;8.20;7.43;;;;;;;;;;5081195;28;20032;-82
2021/01/04 12:47:52;;;;;;;6.75;6.15;;;;;;;;;;5097425;28;20024;-86
2021/01/04 12:50:18;;;;;;;7.32;6.72;;;;;;;;;;5080021;28;20043;-85
2021/01/04 12:52:44;;;;;;;6.95;6.05;;;;;;;;;;5076708;28;20040;-85
2021/01/04 12:55:11;;;;;;;6.72;6.03;;;;;;;;;;5066246;28;20028;-85
2021/01/04 12:57:37;;;;;;;9.80;6.85;;;;;;;;;;5074070;28;20028;-85
2021/01/04 13:00:06;;;;;;;8.02;6.35;;;;;;;;;;5079971;28;20024;-88
2021/01/04 13:02:32;;;;;;;;;;;;;;;;;;5097670;28;20343;-85
2021/01/04 13:04:58;;;;;;;6.35;5.65;;;;;;;;;;5078625;28;19919;-87
2021/01/04 13:07:24;;;;;;;6.55;5.95;;;;;;;;;;5078639;28;20024;-89
2021/01/04 13:09:51;;;;;;;6.50;5.90;;;;;;;;;;5080398;28;20035;-88
2021/01/04 13:12:20;;;;;;;7.95;6.85;;;;;;;;;;5080769;28;20077;-87
2021/01/04 13:14:47;;;;;;;6.85;5.82;;;;;;;;;;5072344;28;20033;-88
2021/01/04 13:17:13;;;;;;;6.82;5.40;;;;;;;;;;5081335;28;20044;-89
2021/01/04 13:19:39;;;;;;;7.13;6.43;;;;;;;;;;5098331;28;20024;-88
2021/01/04 13:22:06;;;;;;;6.25;5.65;;;;;;;;;;5081119;28;20027;-87
2021/01/04 13:24:32;;;;;;;6.57;5.70;;;;;;;;;;5074477;28;20043;-85
2021/01/04 13:26:58;;;;;;;5.97;5.38;;;;;;;;;;5097976;28;20048;-87
2021/01/04 13:29:26;;;;;;;6.13;5.53;;;;;;;;;;5071035;28;20372;-88
2021/01/04 13:31:54;;;;;;;6.57;5.95;;;;;;;;;;5081086;28;20078;-86
2021/01/04 13:34:20;;;;;;;6.05;5.45;;;;;;;;;;5080234;28;20329;-87
2021/01/04 13:36:47;;;;;;;5.53;5.03;;;;;;;;;;5077937;28;20044;-87
2021/01/04 13:39:13;;;;;;;5.93;5.43;;;;;;;;;;5080976;28;20085;-86
2021/01/04 13:41:42;;;;;;;5.82;4.53;;;;;;;;;;5080276;28;20036;-87
2021/01/04 13:44:08;;;;;;;6.20;5.60;;;;;;;;;;5080104;28;20027;-85
2021/01/04 13:46:35;;;;;;;4.97;4.47;;;;;;;;;;5078653;28;20284;-88
2021/01/04 13:49:02;;;;;;;5.38;4.88;;;;;;;;;;5081061;28;20032;-87
2021/01/04 13:51:28;;;;;;;5.20;4.70;;;;;;;;;;5063068;28;20036;-88
2021/01/04 13:53:57;;;;;;;5.65;5.05;;;;;;;;;;5095092;28;20044;-85
2021/01/04 13:56:23;;;;;;;4.72;4.32;;;;;;;;;;5079232;28;20044;-88
2021/01/04 13:58:50;;;;;;;7.30;4.97;;;;;;;;;;5081602;28;20058;-86
2021/01/04 14:01:23;;;;;;;4.80;4.40;;;;;;;;;;5098970;28;20397;-85
2021/01/04 14:03:51;;;;;;;4.70;4.30;;;;;;;;;;5081160;28;20035;-85
2021/01/04 14:06:18;;;;;;;5.22;4.72;;;;;;;;;;5081500;28;20036;-87
2021/01/04 14:08:45;;;;;;;4.63;4.22;;;;;;;;;;5097253;28;20023;-89
2021/01/04 14:11:18;;;;;;;4.60;4.20;;;;;;;;;;5081721;28;20036;-87
2021/01/04 14:13:44;;;;;;;4.30;3.88;;;;;;;;;;5077859;28;20032;-89
2021/01/04 14:16:10;;;;;;;4.65;4.25;;;;;;;;;;5080219;28;20104;-89
2021/01/04 14:18:37;;;;;;;4.72;4.22;;;;;;;;;;5098941;28;20330;-86
2021/01/04 14:21:04;;;;;;;4.60;4.18;;;;;;;;;;5098210;28;20016;-85
2021/01/04 14:23:31;;;;;;;4.57;3.97;;;;;;;;;;5081143;28;20039;-88
2021/01/04 14:25:58;;;;;;;4.20;3.80;;;;;;;;;;5076198;28;20317;-87
2021/01/04 14:28:24;;;;;;;3.80;3.50;;;;;;;;;;5074524;28;20028;-86
2021/01/04 14:30:50;;;;;;;3.80;3.50;;;;;;;;;;5058791;28;20066;-86
2021/01/04 14:33:16;;;;;;;4.20;3.88;;;;;;;;;;5080017;28;20061;-87
2021/01/04 14:35:42;;;;;;;4.30;3.90;;;;;;;;;;5079544;28;20040;-87
2021/01/04 14:38:09;;;;;;;4.50;4.07;;;;;;;;;;5078877;28;20036;-88
2021/01/04 14:40:35;;;;;;;3.60;3.30;;;;;;;;;;5078572;28;20032;-85
2021/01/04 14:43:01;;;;;;;4.25;3.85;;;;;;;;;;5078253;28;20036;-84
2021/01/04 14:45:27;;;;;;;3.70;3.40;;;;;;;;;;5079657;28;20024;-85
2021/01/04 14:47:54;;;;;;;4.10;3.80;;;;;;;;;;5095274;28;20040;-87
2021/01/04 14:50:20;;;;;;;5.13;4.05;;;;;;;;;;5096008;28;20073;-85
2021/01/04 14:52:47;;;;;;;6.10;3.72;;;;;;;;;;5096524;28;20024;-86
2021/01/04 14:55:14;;;;;;;3.53;3.22;;;;;;;;;;5079345;28;20035;-87
2021/01/04 14:57:40;;;;;;;3.67;3.38;;;;;;;;;;5079936;28;20040;-86
2021/01/04 15:00:07;;;;;;;3.85;3.17;;;;;;;;;;5080369;28;20020;-87
2021/01/04 15:02:33;;;;;;;4.72;3.50;;;;;;;;;;5079735;28;20024;-85
2021/01/04 15:04:59;;;;;;;5.00;3.33;;;;;;;;;;5096637;28;20038;-86
2021/01/04 15:07:25;;;;;;;4.65;3.75;;;;;;;;;;5079031;28;20020;-86